createdAt,value
2022-09-03T00:00:10.748Z,1.40
2022-09-03T00:03:00.615Z,1.75
2022-09-03T00:05:49.093Z,1.40
2022-09-03T00:08:28.441Z,1.23
2022-09-03T00:11:23.371Z,1.33
2022-09-03T00:14:09.838Z,1.38
2022-09-03T00:16:49.982Z,1.30
2022-09-03T00:19:18.464Z,1.10
2022-09-03T00:21:48.369Z,1.40
2022-09-03T00:24:18.326Z,1.33
2022-09-03T00:26:47.272Z,1.70
2022-09-03T00:29:17.159Z,1.40
2022-09-03T00:31:51.658Z,1.48
2022-09-03T00:34:29.706Z,1.23
2022-09-03T00:36:56.728Z,1.42
2022-09-03T00:39:25.490Z,1.33
2022-09-03T00:42:09.266Z,1.20
2022-09-03T00:44:50.668Z,1.70
2022-09-03T00:47:20.001Z,1.23
2022-09-03T00:50:10.004Z,1.60
2022-09-03T00:52:52.417Z,1.23
2022-09-03T00:55:49.347Z,1.30
2022-09-03T00:58:54.938Z,1.30
2022-09-03T01:01:51.294Z,1.25
2022-09-03T01:04:42.473Z,1.35
2022-09-03T01:07:46.114Z,1.40
2022-09-03T01:10:26.001Z,1.20
2022-09-03T01:12:58.110Z,1.20
2022-09-03T01:15:40.756Z,1.20
2022-09-03T01:18:20.350Z,1.45
2022-09-03T01:21:27.640Z,1.33
2022-09-03T01:24:31.696Z,1.27
2022-09-03T01:27:15.164Z,1.30
2022-09-03T01:29:54.812Z,1.27
2022-09-03T01:32:27.881Z,1.40
2022-09-03T01:35:25.098Z,1.30
2022-09-03T01:38:33.267Z,1.50
2022-09-03T01:41:46.139Z,1.10
2022-09-03T01:44:25.253Z,1.35
2022-09-03T01:47:09.261Z,1.17
2022-09-03T01:49:41.517Z,1.33
2022-09-03T01:52:15.432Z,1.25
2022-09-03T01:54:50.378Z,1.20
2022-09-03T01:57:58.856Z,1.48
2022-09-03T02:00:26.717Z,1.30
2022-09-03T02:02:53.611Z,1.27
2022-09-03T02:05:29.949Z,1.30
2022-09-03T02:08:07.541Z,1.20
2022-09-03T02:10:42.908Z,1.30
2022-09-03T02:13:16.531Z,1.02
2022-09-03T02:15:45.843Z,1.55
2022-09-03T02:18:19.598Z,1.27
2022-09-03T02:20:48.006Z,1.15
2022-09-03T02:23:15.151Z,1.38
2022-09-03T02:25:48.378Z,1.23
2022-09-03T02:28:17.012Z,1.08
2022-09-03T02:30:44.738Z,1.13
2022-09-03T02:33:11.528Z,1.38
2022-09-03T02:35:40.445Z,1.40
2022-09-03T02:38:14.666Z,1.20
2022-09-03T02:40:41.229Z,1.30
2022-09-03T02:43:26.227Z,1.33
2022-09-03T02:45:56.237Z,1.30
2022-09-03T02:48:24.517Z,1.50
2022-09-03T02:50:51.572Z,1.60
2022-09-03T02:53:18.179Z,1.40
2022-09-03T02:55:44.812Z,1.17
2022-09-03T02:58:11.634Z,1.20
2022-09-03T03:00:38.693Z,1.48
2022-09-03T03:03:05.774Z,1.50
2022-09-03T03:05:50.553Z,1.33
2022-09-03T03:08:21.091Z,1.40
2022-09-03T03:10:49.298Z,1.40
2022-09-03T03:13:16.560Z,1.40
2022-09-03T03:15:43.259Z,1.45
2022-09-03T03:18:14.012Z,1.40
2022-09-03T03:20:42.342Z,1.20
2022-09-03T03:23:09.537Z,1.40
2022-09-03T03:25:38.138Z,1.17
2022-09-03T03:28:05.330Z,1.13
2022-09-03T03:30:32.492Z,1.30
2022-09-03T03:32:59.279Z,1.55
2022-09-03T03:35:25.827Z,1.40
2022-09-03T03:37:52.363Z,1.60
2022-09-03T03:40:20.213Z,1.42
2022-09-03T03:42:46.729Z,1.25
2022-09-03T03:45:13.324Z,1.20
2022-09-03T03:47:39.844Z,1.65
2022-09-03T03:50:06.725Z,1.10
2022-09-03T03:52:33.314Z,1.05
2022-09-03T03:54:59.829Z,1.00
2022-09-03T03:57:30.521Z,1.40
2022-09-03T03:59:57.054Z,1.20
2022-09-03T04:02:23.776Z,1.35
2022-09-03T04:04:50.454Z,1.20
2022-09-03T04:07:17.197Z,1.40
2022-09-03T04:09:43.722Z,1.30
2022-09-03T04:12:10.202Z,1.30
2022-09-03T04:14:36.772Z,1.40
2022-09-03T04:17:03.552Z,1.23
2022-09-03T04:19:30.386Z,1.33
2022-09-03T04:21:57.264Z,1.35
2022-09-03T04:24:23.928Z,1.30
2022-09-03T04:26:50.551Z,1.20
2022-09-03T04:29:18.115Z,1.30
2022-09-03T04:32:04.620Z,1.23
2022-09-03T04:34:31.268Z,1.23
2022-09-03T04:36:59.032Z,1.38
2022-09-03T04:39:25.879Z,1.13
2022-09-03T04:41:52.465Z,1.67
2022-09-03T04:44:19.065Z,1.42
2022-09-03T04:46:47.751Z,1.20
2022-09-03T04:49:14.732Z,1.20
2022-09-03T04:51:41.265Z,1.40
2022-09-03T04:54:09.124Z,1.05
2022-09-03T04:56:36.312Z,1.48
2022-09-03T04:59:05.977Z,1.48
2022-09-03T05:01:34.243Z,1.40
2022-09-03T05:04:01.343Z,1.30
2022-09-03T05:06:29.006Z,1.30
2022-09-03T05:08:56.132Z,1.40
2022-09-03T05:11:23.548Z,1.40
2022-09-03T05:13:51.997Z,1.30
2022-09-03T05:16:18.996Z,1.30
2022-09-03T05:18:47.112Z,1.30
2022-09-03T05:21:18.637Z,1.10
2022-09-03T05:23:46.932Z,1.00
2022-09-03T05:26:15.822Z,1.10
2022-09-03T05:28:43.081Z,1.27
2022-09-03T05:31:15.167Z,1.15
2022-09-03T05:33:47.072Z,1.40
2022-09-03T05:36:16.821Z,1.20
2022-09-03T05:38:43.864Z,1.40
2022-09-03T05:41:11.943Z,1.35
2022-09-03T05:43:39.421Z,1.08
2022-09-03T05:46:11.370Z,1.15
2022-09-03T05:48:39.342Z,1.45
2022-09-03T05:51:08.327Z,1.25
2022-09-03T05:53:36.918Z,0.85
2022-09-03T05:56:06.435Z,1.10
2022-09-03T05:58:39.123Z,1.40
2022-09-03T06:01:23.088Z,1.13
2022-09-03T06:04:00.729Z,1.00
2022-09-03T06:06:29.006Z,1.25
2022-09-03T06:08:58.071Z,1.10
2022-09-03T06:11:29.679Z,1.17
2022-09-03T06:13:57.543Z,1.40
2022-09-03T06:16:31.541Z,1.20
2022-09-03T06:19:02.064Z,1.30
2022-09-03T06:21:29.314Z,1.17
2022-09-03T06:23:59.743Z,1.15
2022-09-03T06:26:28.608Z,1.33
2022-09-03T06:28:56.973Z,1.17
2022-09-03T06:31:24.321Z,1.10
2022-09-03T06:33:51.880Z,1.23
2022-09-03T06:36:19.642Z,1.10
2022-09-03T06:38:47.236Z,1.20
2022-09-03T06:41:23.764Z,1.50
2022-09-03T06:43:51.481Z,0.90
2022-09-03T06:46:21.472Z,1.00
2022-09-03T06:48:51.369Z,1.15
2022-09-03T06:51:20.189Z,1.00
2022-09-03T06:53:49.852Z,0.90
2022-09-03T06:56:19.660Z,1.20
2022-09-03T06:58:47.669Z,1.23
2022-09-03T07:01:19.589Z,1.13
2022-09-03T07:03:48.253Z,1.00
2022-09-03T07:06:19.551Z,1.10
2022-09-03T07:11:19.336Z,1.10
2022-09-03T07:13:48.045Z,1.30
2022-09-03T07:16:17.255Z,1.25
2022-09-03T07:18:43.992Z,1.33
2022-09-03T07:21:18.875Z,1.10
2022-09-03T07:23:45.489Z,1.13
2022-09-03T07:26:15.044Z,1.30
2022-09-03T07:28:43.121Z,1.30
2022-09-03T07:31:14.899Z,0.95
2022-09-03T07:33:42.288Z,1.10
2022-09-03T07:36:11.138Z,1.30
2022-09-03T07:38:38.018Z,1.33
2022-09-03T07:41:06.647Z,1.20
2022-09-03T07:43:39.985Z,1.10
2022-09-03T07:46:08.383Z,1.20
2022-09-03T07:48:37.448Z,1.10
2022-09-03T07:51:04.291Z,1.10
2022-09-03T07:53:30.867Z,1.27
2022-09-03T07:56:08.581Z,1.23
2022-09-03T07:58:35.845Z,1.30
2022-09-03T08:01:11.173Z,1.10
2022-09-03T08:03:38.871Z,1.20
2022-09-03T08:06:07.584Z,1.00
2022-09-03T08:08:38.789Z,1.40
2022-09-03T08:11:10.929Z,1.10
2022-09-03T08:13:48.640Z,1.30
2022-09-03T08:16:18.662Z,1.15
2022-09-03T08:18:45.948Z,1.20
2022-09-03T08:21:17.065Z,1.35
2022-09-03T08:23:45.646Z,1.40
2022-09-03T08:26:12.969Z,1.10
2022-09-03T08:28:39.859Z,1.20
2022-09-03T08:31:15.245Z,1.42
2022-09-03T08:33:44.363Z,1.45
2022-09-03T08:36:13.286Z,1.35
2022-09-03T08:38:43.265Z,1.42
2022-09-03T08:41:16.299Z,1.30
2022-09-03T08:44:17.024Z,1.55
2022-09-03T08:46:51.432Z,1.20
2022-09-03T08:49:43.883Z,1.35
2022-09-03T08:52:26.077Z,1.38
2022-09-03T08:54:56.202Z,1.33
2022-09-03T08:57:23.048Z,1.30
2022-09-03T08:59:53.583Z,1.20
2022-09-03T09:02:50.361Z,1.75
2022-09-03T09:05:26.268Z,1.27
2022-09-03T09:08:21.429Z,1.40
2022-09-03T09:10:55.290Z,1.20
2022-09-03T09:13:47.704Z,1.30
2022-09-03T09:16:35.023Z,1.40
2022-09-03T09:19:19.337Z,1.20
2022-09-03T09:21:52.280Z,1.45
2022-09-03T09:24:36.107Z,1.50
2022-09-03T09:27:05.569Z,1.30
2022-09-03T09:29:33.987Z,1.30
2022-09-03T09:32:00.730Z,1.40
2022-09-03T09:34:27.688Z,1.35
2022-09-03T09:36:55.828Z,1.15
2022-09-03T09:39:22.937Z,1.30
2022-09-03T09:42:00.926Z,1.20
2022-09-03T09:44:27.989Z,1.60
2022-09-03T09:47:04.748Z,1.45
2022-09-03T09:49:32.832Z,1.60
2022-09-03T09:52:08.162Z,1.60
2022-09-03T09:54:34.933Z,1.42
2022-09-03T09:57:04.923Z,1.77
2022-09-03T09:59:32.372Z,1.70
2022-09-03T10:02:13.770Z,1.60
2022-09-03T10:04:48.453Z,1.75
2022-09-03T10:07:23.932Z,1.48
2022-09-03T10:10:14.933Z,1.63
2022-09-03T10:13:09.330Z,1.65
2022-09-03T10:15:41.203Z,2.05
2022-09-03T10:18:38.833Z,1.60
2022-09-03T10:21:13.002Z,1.50
2022-09-03T10:23:57.428Z,1.50
2022-09-03T10:26:32.348Z,1.75
2022-09-03T10:29:01.439Z,1.65
2022-09-03T10:31:42.823Z,1.58
2022-09-03T10:34:34.970Z,1.63
2022-09-03T10:37:22.561Z,1.48
2022-09-03T10:40:17.739Z,1.65
2022-09-03T10:43:13.359Z,1.63
2022-09-03T10:45:57.972Z,1.65
2022-09-03T10:48:28.413Z,1.92
2022-09-03T10:51:04.196Z,1.92
2022-09-03T10:53:37.362Z,1.88
2022-09-03T10:56:25.481Z,1.70
2022-09-03T10:59:15.161Z,2.05
2022-09-03T11:01:44.598Z,2.20
2022-09-03T11:04:19.848Z,1.60
2022-09-03T11:06:54.314Z,1.63
2022-09-03T11:09:48.128Z,1.80
2022-09-03T11:12:26.454Z,2.00
2022-09-03T11:15:10.163Z,1.98
2022-09-03T11:17:41.318Z,1.90
2022-09-03T11:20:18.813Z,1.70
2022-09-03T11:22:46.815Z,1.70
2022-09-03T11:25:15.592Z,1.70
2022-09-03T11:27:42.055Z,2.33
2022-09-03T11:30:49.794Z,2.00
2022-09-03T11:33:19.945Z,1.95
2022-09-03T11:35:46.571Z,1.73
2022-09-03T11:38:16.627Z,1.90
2022-09-03T11:41:02.424Z,1.70
2022-09-03T11:43:33.449Z,1.58
2022-09-03T11:46:12.863Z,2.53
2022-09-03T11:48:45.026Z,1.75
2022-09-03T11:51:33.254Z,1.80
2022-09-03T11:54:08.540Z,1.50
2022-09-03T11:56:36.171Z,1.88
2022-09-03T11:59:14.510Z,1.67
2022-09-03T12:02:00.723Z,1.45
2022-09-03T12:04:43.486Z,1.60
2022-09-03T12:07:39.815Z,1.90
2022-09-03T12:10:24.758Z,1.95
2022-09-03T12:13:23.919Z,1.92
2022-09-03T12:16:09.153Z,2.05
2022-09-03T12:18:37.195Z,2.00
2022-09-03T12:21:06.191Z,2.28
2022-09-03T12:23:47.453Z,2.17
2022-09-03T12:26:16.970Z,2.00
2022-09-03T12:28:48.542Z,2.13
2022-09-03T12:31:29.463Z,2.05
2022-09-03T12:33:59.852Z,1.67
2022-09-03T12:36:36.784Z,2.08
2022-09-03T12:39:15.064Z,1.77
2022-09-03T12:42:01.437Z,2.10
2022-09-03T12:44:32.824Z,1.70
2022-09-03T12:47:36.912Z,1.88
2022-09-03T12:50:17.040Z,1.83
2022-09-03T12:52:59.310Z,1.88
2022-09-03T12:55:28.659Z,1.85
2022-09-03T12:58:14.031Z,1.70
2022-09-03T13:00:47.393Z,2.35
2022-09-03T13:03:24.524Z,2.10
2022-09-03T13:06:04.058Z,2.38
2022-09-03T13:08:33.979Z,2.17
2022-09-03T13:11:04.831Z,2.10
2022-09-03T13:13:33.697Z,2.10
2022-09-03T13:16:09.206Z,2.22
2022-09-03T13:18:44.508Z,2.60
2022-09-03T13:21:19.039Z,1.95
2022-09-03T13:24:28.662Z,2.50
2022-09-03T13:27:08.364Z,2.22
2022-09-03T13:29:54.886Z,2.58
2022-09-03T13:32:42.457Z,2.15
2022-09-03T13:35:27.014Z,2.30
2022-09-03T13:38:14.756Z,2.40
2022-09-03T13:40:47.941Z,2.13
2022-09-03T13:43:42.349Z,2.67
2022-09-03T13:46:17.222Z,2.60
2022-09-03T13:49:03.950Z,2.10
2022-09-03T13:51:49.746Z,2.28
2022-09-03T13:54:26.304Z,2.42
2022-09-03T13:57:09.473Z,2.60
2022-09-03T13:59:54.489Z,2.58
2022-09-03T14:02:42.662Z,2.25
2022-09-03T14:05:34.552Z,2.60
2022-09-03T14:08:21.129Z,2.25
2022-09-03T14:10:53.724Z,2.50
2022-09-03T14:13:47.102Z,2.30
2022-09-03T14:16:25.763Z,2.42
2022-09-03T14:19:00.209Z,2.47
2022-09-03T14:21:35.963Z,2.95
2022-09-03T14:24:21.679Z,2.30
2022-09-03T14:26:56.845Z,2.17
2022-09-03T14:29:27.292Z,2.53
2022-09-03T14:32:06.491Z,2.20
2022-09-03T14:34:58.302Z,2.20
2022-09-03T14:37:43.156Z,2.38
2022-09-03T14:40:13.401Z,2.35
2022-09-03T14:42:49.106Z,2.15
2022-09-03T14:45:36.028Z,2.00
2022-09-03T14:48:44.293Z,2.10
2022-09-03T14:51:19.856Z,2.40
2022-09-03T14:54:07.737Z,2.15
2022-09-03T14:56:55.026Z,1.90
2022-09-03T14:59:24.305Z,2.22
2022-09-03T15:02:12.032Z,2.03
2022-09-03T15:04:56.474Z,1.95
2022-09-03T15:07:41.057Z,2.03
2022-09-03T15:10:14.145Z,2.20
2022-09-03T15:12:44.393Z,2.20
2022-09-03T15:15:20.008Z,2.00
2022-09-03T15:18:00.428Z,2.10
2022-09-03T15:20:44.164Z,2.33
2022-09-03T15:23:29.330Z,2.20
2022-09-03T15:26:20.762Z,2.30
2022-09-03T15:29:21.205Z,2.75
2022-09-03T15:32:43.094Z,2.38
2022-09-03T15:35:16.585Z,2.00
2022-09-03T15:37:52.341Z,1.90
2022-09-03T15:40:26.240Z,2.28
2022-09-03T15:43:01.011Z,2.25
2022-09-03T15:45:49.186Z,2.13
2022-09-03T15:48:23.707Z,1.90
2022-09-03T15:50:53.027Z,2.13
2022-09-03T15:53:33.982Z,1.80
2022-09-03T15:56:11.667Z,2.08
2022-09-03T15:59:18.052Z,1.88
2022-09-03T16:02:12.897Z,1.80
2022-09-03T16:05:16.721Z,1.98
2022-09-03T16:08:03.396Z,2.00
2022-09-03T16:10:50.913Z,2.30
2022-09-03T16:13:29.885Z,2.00
2022-09-03T16:16:05.359Z,1.92
2022-09-03T16:18:55.161Z,2.00
2022-09-03T16:21:28.865Z,2.13
2022-09-03T16:24:01.863Z,2.17
2022-09-03T16:27:00.660Z,2.05
2022-09-03T16:29:30.764Z,2.20
2022-09-03T16:32:07.977Z,2.10
2022-09-03T16:34:54.108Z,2.00
2022-09-03T16:37:52.684Z,2.75
2022-09-03T16:40:37.286Z,2.10
2022-09-03T16:43:29.951Z,1.90
2022-09-03T16:46:00.935Z,2.22
2022-09-03T16:48:50.716Z,2.20
2022-09-03T16:51:35.327Z,2.20
2022-09-03T16:54:30.932Z,2.30
2022-09-03T16:57:06.296Z,2.63
2022-09-03T16:59:59.457Z,2.45
2022-09-03T17:02:47.562Z,2.40
2022-09-03T17:05:19.809Z,2.53
2022-09-03T17:08:11.805Z,2.00
2022-09-03T17:10:45.485Z,2.83
2022-09-03T17:13:23.899Z,2.45
2022-09-03T17:16:24.877Z,2.97
2022-09-03T17:19:02.711Z,2.53
2022-09-03T17:21:38.239Z,2.83
2022-09-03T17:24:14.058Z,2.80
2022-09-03T17:26:56.401Z,3.38
2022-09-03T17:29:31.290Z,2.63
2022-09-03T17:32:12.609Z,2.45
2022-09-03T17:37:09.264Z,2.30
2022-09-03T17:39:51.018Z,2.40
2022-09-03T17:42:56.869Z,2.60
2022-09-03T17:45:51.981Z,3.13
2022-09-03T17:48:51.314Z,3.53
2022-09-03T17:51:35.045Z,2.63
2022-09-03T17:54:13.113Z,2.28
2022-09-03T17:56:39.530Z,2.40
2022-09-03T17:59:12.578Z,2.50
2022-09-03T18:01:49.252Z,2.45
2022-09-03T18:04:39.886Z,2.30
2022-09-03T18:07:12.784Z,2.40
2022-09-03T18:10:07.333Z,2.00
2022-09-03T18:12:52.708Z,2.28
2022-09-03T18:15:39.826Z,2.67
2022-09-03T18:18:24.295Z,2.35
2022-09-03T18:21:31.283Z,2.50
2022-09-03T18:24:23.408Z,2.40
2022-09-03T18:27:34.054Z,2.20
2022-09-03T18:30:27.706Z,1.90
2022-09-03T18:33:13.251Z,2.20
2022-09-03T18:35:58.449Z,2.40
2022-09-03T18:38:52.327Z,2.00
2022-09-03T18:41:47.586Z,2.20
2022-09-03T18:44:38.702Z,2.33
2022-09-03T18:48:04.752Z,2.45
2022-09-03T18:51:02.436Z,2.00
2022-09-03T18:53:58.410Z,2.33
2022-09-03T18:56:58.811Z,2.22
2022-09-03T18:59:56.394Z,2.33
2022-09-03T19:02:59.901Z,2.13
2022-09-03T19:05:53.450Z,2.22
2022-09-03T19:08:46.898Z,2.25
2022-09-03T19:11:55.799Z,1.92
2022-09-03T19:15:15.563Z,2.10
2022-09-03T19:18:06.828Z,1.88
2022-09-03T19:20:54.308Z,2.10
2022-09-03T19:23:39.614Z,2.10
2022-09-03T19:26:37.321Z,1.95
2022-09-03T19:29:29.367Z,2.78
2022-09-03T19:32:19.995Z,1.75
2022-09-03T19:35:17.282Z,2.65
2022-09-03T19:38:38.285Z,2.70
2022-09-03T19:41:23.155Z,2.77
2022-09-03T19:44:17.466Z,2.53
2022-09-03T19:47:06.922Z,2.50
2022-09-03T19:50:07.762Z,2.47
2022-09-03T19:53:22.266Z,2.40
2022-09-03T19:56:12.295Z,2.60
2022-09-03T19:59:02.284Z,3.03
2022-09-03T20:01:53.285Z,2.65
2022-09-03T20:04:55.192Z,2.80
2022-09-03T20:07:40.698Z,2.90
2022-09-03T20:10:23.192Z,3.05
2022-09-03T20:13:02.423Z,2.60
2022-09-03T20:15:40.046Z,3.10
2022-09-03T20:18:23.082Z,2.83
2022-09-03T20:21:13.638Z,2.92
2022-09-03T20:24:13.122Z,2.85
2022-09-03T20:26:52.575Z,2.70
2022-09-03T20:29:28.819Z,2.90
2022-09-03T20:32:11.349Z,2.67
2022-09-03T20:35:04.267Z,2.78
2022-09-03T20:37:50.518Z,2.70
2022-09-03T20:40:29.753Z,3.50
2022-09-03T20:43:17.761Z,2.70
2022-09-03T20:46:18.529Z,3.00
2022-09-03T20:49:10.052Z,2.73
2022-09-03T20:51:41.613Z,3.13
2022-09-03T20:54:13.344Z,2.72
2022-09-03T20:56:45.918Z,2.70
2022-09-03T20:59:25.295Z,2.33
2022-09-03T21:01:59.015Z,2.35
2022-09-03T21:04:56.369Z,2.40
2022-09-03T21:07:29.032Z,2.60
2022-09-03T21:10:03.486Z,2.30
2022-09-03T21:12:43.457Z,2.45
2022-09-03T21:15:15.773Z,2.53
2022-09-03T21:18:15.421Z,2.50
2022-09-03T21:21:01.543Z,2.60
2022-09-03T21:23:48.579Z,2.80
2022-09-03T21:26:21.328Z,2.55
2022-09-03T21:29:07.284Z,2.50
2022-09-03T21:31:52.164Z,2.50
2022-09-03T21:34:30.662Z,2.38
2022-09-03T21:36:59.312Z,2.58
2022-09-03T21:39:33.515Z,2.72
2022-09-03T21:42:11.852Z,2.45
2022-09-03T21:44:47.140Z,2.60
2022-09-03T21:47:18.507Z,2.85
2022-09-03T21:52:19.837Z,2.78
2022-09-03T21:54:46.745Z,2.65
2022-09-03T21:57:37.698Z,2.85
2022-09-03T22:00:10.314Z,2.88
2022-09-03T22:02:40.365Z,3.08
2022-09-03T22:05:08.004Z,2.90
2022-09-03T22:08:02.266Z,3.10
2022-09-03T22:10:51.338Z,3.28
2022-09-03T22:13:28.411Z,3.30
2022-09-03T22:16:30.166Z,4.00
2022-09-03T22:18:58.611Z,3.55
2022-09-03T22:21:44.320Z,3.58
2022-09-03T22:24:41.174Z,3.53
2022-09-03T22:27:26.549Z,3.67
2022-09-03T22:30:06.676Z,3.72
2022-09-03T22:33:07.212Z,3.58
2022-09-03T22:35:36.525Z,3.90
2022-09-03T22:38:17.744Z,3.90
2022-09-03T22:40:52.535Z,3.70
2022-09-03T22:43:24.077Z,4.30
2022-09-03T22:48:23.328Z,3.53
2022-09-03T22:50:57.045Z,3.38
2022-09-03T22:53:51.081Z,3.58
2022-09-03T22:56:22.068Z,3.95
2022-09-03T22:59:10.545Z,3.80
2022-09-03T23:02:02.936Z,4.22
2022-09-03T23:04:34.490Z,4.03
2022-09-03T23:07:18.927Z,3.80
2022-09-03T23:09:55.860Z,4.55
2022-09-03T23:12:35.313Z,4.22
2022-09-03T23:15:06.627Z,4.35
2022-09-03T23:17:39.025Z,4.60
2022-09-03T23:20:21.122Z,4.38
2022-09-03T23:23:03.427Z,4.15
2022-09-03T23:25:36.753Z,4.78
2022-09-03T23:28:13.721Z,4.75
2022-09-03T23:30:41.653Z,4.40
2022-09-03T23:33:10.767Z,4.40
2022-09-03T23:35:57.535Z,4.90
2022-09-03T23:38:39.822Z,5.05
2022-09-03T23:41:07.909Z,4.82
2022-09-03T23:43:53.774Z,4.53
2022-09-03T23:46:31.891Z,5.13
2022-09-03T23:49:07.290Z,5.32
2022-09-03T23:51:48.531Z,5.38
2022-09-03T23:54:36.582Z,5.65
2022-09-03T23:57:30.140Z,5.03
